Latest Weather Observations for Pound Creek

IDV60801

Issued at 11:02 am EDT Sunday 1 March 2015 (issued every 30 minutes, with the page automatically refreshed every 10 minutes)

About weather observations | Map of weather stations | Latest weather observations for VIC | Other Formats
Station Details ID: 085099 Name: POUND CREEK Lat: -38.63 Lon: 145.81 Height: 3.0 m
Data from the previous 72 hours. | See also: Recent months at Pound Creek
Date/Time
EDT
Temp
°C
App
Temp
°C
Dew
Point
Rel
Hum
%
Delta-T
°C
Wind Press
QNH
hPa
Press
MSL
hPa
Rain
since 9 am
mm
Dir
 
Spd
km/h
Gust
km/h
Spd
kts
Gust
kts
01/11:00am 18.7 15.3 12.5 67 3.5 SW 22 32 12 17 1012.8 1012.8 0.0
01/10:30am 18.8 14.3 11.4 62 4.0 SW 26 37 14 20 1012.3 1012.3 0.0
01/10:00am 17.9 13.8 12.6 71 3.0 SW 26 35 14 19 1011.7 1011.7 0.0
01/09:30am 17.6 13.1 11.4 67 3.4 SW 26 35 14 19 1011.2 1011.2 0.0
01/09:00am 17.4 12.9 11.4 68 3.3 SW 26 37 14 20 1010.7 1010.7 12.0
01/08:30am 17.0 12.7 11.9 72 2.8 SW 26 35 14 19 1010.1 1010.1 12.0
01/08:00am 16.8 13.2 11.9 73 2.7 SW 22 33 12 18 1009.7 1009.7 12.0
01/07:30am 16.1 12.1 11.9 76 2.3 SW 24 32 13 17 1009.1 1009.1 12.0
01/07:00am 16.2 12.3 12.0 76 2.3 SW 24 32 13 17 1008.5 1008.5 12.0
01/06:30am 16.1 12.3 12.5 79 2.0 SW 24 32 13 17 1007.9 1007.9 12.0
01/06:00am 16.4 12.3 12.8 79 2.0 SW 26 35 14 19 1007.4 1007.4 12.0
01/05:30am 16.2 11.4 11.6 74 2.5 SW 28 41 15 22 1006.6 1006.6 12.0
01/05:00am 16.4 10.9 11.8 74 2.5 SW 32 43 17 23 1006.1 1006.1 12.0
01/04:30am 16.6 11.3 12.6 77 2.2 SW 32 43 17 23 1006.0 1006.0 12.0
01/04:00am 16.8 13.1 13.9 83 1.6 SW 26 37 14 20 1005.4 1005.4 12.0
01/03:30am 16.8 12.5 14.3 85 1.4 SW 30 41 16 22 1005.4 1005.4 12.0
01/03:00am 16.8 14.1 15.7 93 0.6 SSW 24 35 13 19 1005.2 1005.2 12.0
01/02:30am 16.8 14.0 16.3 97 0.3 SSW 26 35 14 19 1005.1 1005.1 12.0
01/02:00am 17.6 15.9 17.1 97 0.3 SW 22 30 12 16 1004.8 1004.8 11.8
01/01:30am 17.7 16.4 17.2 97 0.3 SW 20 32 11 17 1005.0 1005.0 11.6
01/01:17am 18.0 17.4 17.5 97 0.3 W 17 39 9 21 1004.8 1004.8 11.4
01/01:00am 18.2 19.6 17.7 97 0.3 W 7 13 4 7 1004.5 1004.5 10.2
01/12:30am 18.1 19.6 17.6 97 0.3 N 6 7 3 4 1004.5 1004.5 10.0
01/12:00am 18.1 19.4 17.6 97 0.3 N 7 13 4 7 1004.6 1004.6 9.6
 
Date/Time
EDT
Temp
°C
App
Temp
°C
Dew
Point
Rel
Hum
%
Delta-T
°C
Wind Press
QNH
hPa
Press
MSL
hPa
Rain
since 9 am
mm
Dir
 
Spd
km/h
Gust
km/h
Spd
kts
Gust
kts
28/11:30pm 18.3 19.3 17.7 96 0.4 N 9 13 5 7 1005.6 1005.6 7.8
28/11:00pm 18.6 20.9 17.8 95 0.5 N 2 7 1 4 1005.5 1005.5 3.4
28/10:30pm 18.8 19.4 17.8 94 0.6 SW 11 17 6 9 1005.1 1005.1 2.2
28/10:00pm 18.9 15.5 17.7 93 0.7 SW 32 46 17 25 1004.9 1004.9 1.0
28/09:30pm 19.7 13.6 16.7 83 1.8 WSW 44 72 24 39 1003.9 1003.9 0.8
28/09:24pm 21.8 19.2 15.9 69 3.5 NW 24 72 13 39 1003.5 1003.5 0.4
28/09:22pm 24.3 23.0 15.8 59 5.1 NNW 17 56 9 30 1003.2 1003.2 0.0
28/09:21pm 25.0 24.0 15.6 56 5.7 NNW 15 28 8 15 1002.5 1002.5 0.0
28/09:00pm 24.6 23.6 15.5 57 5.5 NNE 15 20 8 11 1000.2 1000.2 0.0
28/08:30pm 23.6 24.1 15.6 61 4.8 ENE 7 11 4 6 999.5 999.5 0.0
28/08:00pm 24.1 23.7 15.3 58 5.3 ENE 11 15 6 8 999.5 999.5 0.0
28/07:30pm 25.6 24.8 15.0 52 6.4 ENE 13 20 7 11 999.9 999.9 0.0
28/07:00pm 27.1 26.3 15.1 47 7.3 ENE 13 19 7 10 1000.3 1000.3 0.0
28/06:30pm 27.0 26.2 16.0 51 6.8 ENE 15 20 8 11 1000.9 1000.9 0.0
28/06:00pm 26.5 26.3 16.7 55 6.1 E 13 17 7 9 1001.4 1001.4 0.0
28/05:30pm 25.4 26.8 17.8 62 4.8 E 7 11 4 6 1001.9 1001.9 0.0
28/05:00pm 23.3 25.0 18.4 74 3.1 S 7 11 4 6 1002.5 1002.5 0.0
28/04:30pm 24.9 25.8 16.6 60 5.1 SSE 7 9 4 5 1002.6 1002.6 0.0
28/04:00pm 24.6 25.4 16.3 60 5.1 SSE 7 11 4 6 1002.8 1002.8 0.0
28/03:30pm 26.2 27.1 15.0 50 6.7 ESE 4 6 2 3 1003.3 1003.3 0.0
28/03:00pm 25.9 26.2 15.0 51 6.6 NNE 7 13 4 7 1003.5 1003.5 0.0
28/02:30pm 25.0 25.8 15.9 57 5.5 NNW 6 11 3 6 1004.2 1004.2 0.0
28/02:00pm 23.3 23.9 15.9 63 4.5 WSW 7 11 4 6 1004.9 1004.9 0.0
28/01:30pm 21.5 21.0 16.0 71 3.3 WSW 13 19 7 10 1005.2 1005.2 0.0
28/01:00pm 22.3 21.0 15.9 67 3.9 WSW 17 26 9 14 1005.2 1005.2 0.0
28/12:30pm 23.2 22.6 14.7 58 5.0 SW 11 20 6 11 1005.9 1005.9 0.0
28/12:00pm 24.1 24.4 14.5 55 5.7 NW 6 9 3 5 1005.6 1005.6 0.0
28/11:30am 24.4 24.0 14.2 53 6.0 NNW 9 15 5 8 1005.1 1005.1 0.0
28/11:00am 24.4 23.9 13.9 52 6.2 N 9 13 5 7 1005.3 1005.3 0.0
28/10:30am 22.6 21.8 16.2 67 3.9 NNE 15 20 8 11 1005.5 1005.5 0.0
28/10:00am 20.8 19.6 16.2 75 2.8 NNE 17 24 9 13 1005.7 1005.7 0.0
28/09:30am 19.7 18.5 16.0 79 2.2 NNE 17 26 9 14 1006.0 1006.0 0.0
28/09:00am 18.8 18.6 15.7 82 1.8 NNE 11 19 6 10 1006.4 1006.4 0.0
28/08:30am 18.3 16.9 15.6 84 1.6 N 17 22 9 12 1006.4 1006.4 0.0
28/08:00am 17.8 15.8 15.6 87 1.3 NNE 20 30 11 16 1005.9 1005.9 0.0
28/07:30am 17.4 15.6 15.4 88 1.2 NNE 19 28 10 15 1005.4 1005.4 0.0
28/07:00am 16.9 16.1 15.2 90 1.0 NNE 13 19 7 10 1005.7 1005.7 0.0
28/06:30am 15.7 15.5 14.7 94 0.6 ENE 9 11 5 6 1005.7 1005.7 0.0
28/06:00am 14.1 13.9 13.0 93 0.6 E 6 6 3 3 1006.2 1006.2 0.0
28/05:30am 13.8 13.8 12.5 92 0.7 ESE 4 4 2 2 1006.6 1006.6 0.0
28/05:00am 14.2 14.0 13.1 93 0.6 E 6 7 3 4 1007.0 1007.0 0.0
28/04:30am 14.0 14.9 12.9 93 0.6 CALM 0 0 0 0 1007.8 1007.8 0.0
28/04:00am 13.9 14.4 12.8 93 0.6 NE 2 4 1 2 1008.4 1008.4 0.0
28/03:30am 13.6 14.4 12.5 93 0.6 CALM 0 0 0 0 1008.8 1008.8 0.0
28/03:00am 13.1 13.7 11.8 92 0.7 CALM 0 0 0 0 1009.3 1009.3 0.0
28/02:30am 13.5 13.9 12.4 93 0.6 N 2 4 1 2 1009.4 1009.4 0.0
28/02:00am 13.1 13.7 11.8 92 0.7 CALM 0 4 0 2 1009.8 1009.8 0.0
28/01:30am 13.3 13.2 12.0 92 0.7 ENE 4 4 2 2 1009.9 1009.9 0.0
28/01:00am 13.2 13.8 11.9 92 0.7 CALM 0 4 0 2 1010.5 1010.5 0.0
28/12:30am 13.5 13.4 12.1 91 0.8 E 4 4 2 2 1010.9 1010.9 0.0
28/12:00am 13.8 14.1 12.2 90 0.9 E 2 2 1 1 1011.2 1011.2 0.0
 
Date/Time
EDT
Temp
°C
App
Temp
°C
Dew
Point
Rel
Hum
%
Delta-T
°C
Wind Press
QNH
hPa
Press
MSL
hPa
Rain
since 9 am
mm
Dir
 
Spd
km/h
Gust
km/h
Spd
kts
Gust
kts
27/11:30pm 14.1 14.1 12.5 90 0.9 ENE 4 6 2 3 1011.3 1011.3 0.0
27/11:00pm 13.9 13.8 12.1 89 1.0 E 4 4 2 2 1011.3 1011.3 0.0
27/10:30pm 14.3 14.1 11.8 85 1.3 ESE 4 4 2 2 1011.6 1011.6 0.0
27/10:00pm 15.1 14.7 12.4 84 1.5 ENE 6 7 3 4 1011.3 1011.3 0.0
27/09:30pm 15.7 15.4 12.6 82 1.7 E 6 6 3 3 1011.1 1011.1 0.0
27/09:00pm 16.0 15.5 12.7 81 1.8 SE 7 9 4 5 1011.0 1011.0 0.0
27/08:30pm 16.3 15.9 12.3 77 2.2 ESE 6 7 3 4 1010.6 1010.6 0.0
27/08:00pm 16.8 16.3 12.5 76 2.4 SSE 7 9 4 5 1010.4 1010.4 0.0
27/07:30pm 17.4 16.9 12.7 74 2.6 SE 7 11 4 6 1009.8 1009.8 0.0
27/07:00pm 17.8 17.3 12.7 72 2.8 SSE 7 9 4 5 1010.0 1010.0 0.0
27/06:30pm 17.7 17.2 12.8 73 2.7 SE 7 11 4 6 1010.0 1010.0 0.0
27/06:00pm 18.0 16.5 13.1 73 2.8 SSE 13 22 7 12 1010.0 1010.0 0.0
27/05:30pm 18.3 16.2 13.6 74 2.7 S 17 24 9 13 1010.2 1010.2 0.0
27/05:00pm 19.0 16.9 13.6 71 3.1 S 17 24 9 13 1010.4 1010.4 0.0
27/04:30pm 19.8 17.5 14.0 69 3.3 S 19 24 10 13 1010.5 1010.5 0.0
27/04:00pm 18.7 16.2 14.0 74 2.7 S 20 24 11 13 1010.1 1010.1 0.0
27/03:30pm 20.0 17.6 14.4 70 3.3 S 20 28 11 15 1010.3 1010.3 0.0
27/03:00pm 20.3 18.1 14.4 69 3.4 S 19 26 10 14 1010.4 1010.4 0.0
27/02:30pm 21.3 19.3 15.4 69 3.5 SSW 20 28 11 15 1010.5 1010.5 0.0
27/02:00pm 21.1 18.9 14.5 66 3.9 SSW 19 26 10 14 1010.5 1010.5 0.0
27/01:30pm 21.4 19.6 15.5 69 3.5 S 19 26 10 14 1010.6 1010.6 0.0
27/01:00pm 21.2 19.1 15.1 68 3.6 S 20 28 11 15 1010.9 1010.9 0.0
27/12:30pm 21.1 19.4 14.7 67 3.8 S 17 24 9 13 1010.8 1010.8 0.0
27/12:00pm 20.7 19.1 15.0 70 3.4 S 17 22 9 12 1011.1 1011.1 0.0
27/11:30am 20.1 18.6 15.3 74 2.8 S 17 20 9 11 1011.4 1011.4 0.0
27/11:00am 18.9 17.4 15.4 80 2.1 S 17 22 9 12 1011.5 1011.5 0.0
27/10:30am 21.1 21.4 15.9 72 3.1 WSW 9 15 5 8 1011.1 1011.1 0.0
27/10:00am 19.7 19.6 14.9 74 2.8 W 9 15 5 8 1011.0 1011.0 0.0
27/09:30am 20.2 21.3 16.6 80 2.2 NW 6 11 3 6 1010.9 1010.9 0.0
27/09:00am 17.6 18.2 15.8 89 1.1 N 7 11 4 6 1010.7 1010.7 0.0
27/08:30am 16.0 16.4 15.4 96 0.3 N 7 9 4 5 1010.9 1010.9 0.0
27/08:00am 14.1 13.9 13.6 97 0.3 N 7 11 4 6 1010.6 1010.6 0.0
27/07:30am 13.1 13.1 12.5 96 0.3 NNE 4 6 2 3 1010.5 1010.5 0.0
27/07:00am 13.5 14.3 12.7 95 0.4 CALM 0 0 0 0 1010.3 1010.3 0.0
27/06:30am 13.7 14.2 12.8 94 0.5 N 2 6 1 3 1010.0 1010.0 0.0
27/06:00am 14.8 14.7 13.8 94 0.6 N 7 11 4 6 1009.8 1009.8 0.0
27/05:30am 15.4 15.5 14.4 94 0.6 N 7 9 4 5 1009.8 1009.8 0.0
27/05:00am 15.8 16.3 15.0 95 0.5 N 6 7 3 4 1009.9 1009.9 0.0
27/04:30am 15.7 15.7 15.1 96 0.3 N 9 13 5 7 1009.8 1009.8 0.0
27/04:00am 15.2 15.9 14.6 96 0.3 N 4 7 2 4 1010.2 1010.2 0.0
27/03:30am 15.0 14.7 14.4 96 0.3 NNE 9 13 5 7 1010.3 1010.3 0.0
27/03:00am 15.5 16.3 14.7 95 0.5 NNW 4 6 2 3 1010.3 1010.3 0.0
27/02:30am 15.8 16.4 15.2 96 0.3 N 6 7 3 4 1010.3 1010.3 0.0
27/02:00am 15.2 15.4 14.6 96 0.3 NNW 7 9 4 5 1010.7 1010.7 0.0
27/01:30am 15.2 15.4 14.7 97 0.3 N 7 9 4 5 1011.1 1011.1 0.0
27/01:00am 14.4 14.3 13.9 97 0.3 N 7 9 4 5 1011.4 1011.4 0.0
27/12:30am 13.7 13.4 13.2 97 0.3 NNW 7 9 4 5 1011.5 1011.5 0.0
27/12:00am 13.7 13.0 13.2 97 0.3 N 9 9 5 5 1011.4 1011.4 0.0
 
Date/Time
EDT
Temp
°C
App
Temp
°C
Dew
Point
Rel
Hum
%
Delta-T
°C
Wind Press
QNH
hPa
Press
MSL
hPa
Rain
since 9 am
mm
Dir
 
Spd
km/h
Gust
km/h
Spd
kts
Gust
kts
26/11:30pm 13.6 12.8 13.0 96 0.3 NNW 9 9 5 5 1011.5 1011.5 0.0
26/11:00pm 13.9 13.5 13.1 95 0.4 N 7 9 4 5 1011.6 1011.6 0.0
26/10:30pm 14.5 14.3 13.5 94 0.6 NNW 7 7 4 4 1011.7 1011.7 0.0
26/10:00pm 14.9 15.6 13.4 91 0.8 ENE 2 4 1 2 1011.6 1011.6 0.0
26/09:30pm 15.9 16.1 14.3 90 0.9 SSW 6 7 3 4 1011.6 1011.6 0.0
26/09:00pm 16.1 16.0 13.8 86 1.3 S 7 9 4 5 1011.1 1011.1 0.0
26/08:30pm 17.7 18.0 15.0 84 1.6 S 7 9 4 5 1010.8 1010.8 0.0
26/08:00pm 18.2 18.0 14.7 80 2.0 SSW 9 13 5 7 1010.4 1010.4 0.0
26/07:30pm 18.7 18.1 14.6 77 2.4 SSW 11 15 6 8 1010.1 1010.1 0.0
26/07:00pm 19.4 18.6 15.1 76 2.5 SW 13 17 7 9 1009.9 1009.9 0.0
26/06:30pm 19.6 18.2 14.6 73 2.9 SW 15 19 8 10 1009.7 1009.7 0.0
26/06:00pm 20.4 18.8 15.0 71 3.2 SW 17 24 9 13 1009.6 1009.6 0.0
26/05:30pm 20.6 18.7 15.2 71 3.2 SW 19 26 10 14 1009.5 1009.5 0.0
26/05:00pm 20.6 18.9 15.8 74 2.9 SW 19 24 10 13 1009.6 1009.6 0.0
26/04:30pm 21.3 19.2 14.7 66 3.9 SW 19 26 10 14 1009.6 1009.6 0.0
26/04:00pm 22.3 20.5 15.9 67 3.9 SW 20 28 11 15 1009.7 1009.7 0.0
26/03:30pm 21.4 18.7 14.6 65 4.0 SW 22 28 12 15 1010.0 1010.0 0.0
26/03:00pm 22.0 19.6 16.5 71 3.3 SW 24 32 13 17 1010.1 1010.1 0.0
26/02:30pm 21.3 18.4 15.2 68 3.6 SW 24 33 13 18 1010.2 1010.2 0.0
26/02:00pm 21.0 18.3 15.5 71 3.3 SW 24 32 13 17 1010.3 1010.3 0.0
26/01:30pm 22.0 19.6 16.5 71 3.3 SW 24 32 13 17 1010.1 1010.1 0.0
26/01:00pm 22.2 19.7 16.2 69 3.6 SW 24 32 13 17 1010.3 1010.3 0.0
26/12:30pm 21.4 18.9 17.0 76 2.7 SW 26 32 14 17 1010.4 1010.4 0.0
26/12:00pm 21.7 18.6 16.6 73 3.1 SW 28 35 15 19 1010.4 1010.4 0.0
26/11:30am 20.9 18.7 16.9 78 2.4 WSW 24 32 13 17 1010.3 1010.3 0.0

Other Formats:

Comma delimited format used in spreadsheet applications
http://www.bom.gov.au/fwo/IDV60801/IDV60801.94886.axf

JavaScript Object Notation format (JSON) in row-major order
http://www.bom.gov.au/fwo/IDV60801/IDV60801.94886.json